sensor_id;sensor_type;location;lat;lon;timestamp;P1;durP1;ratioP1;P2;durP2;ratioP2
8279;SDS011;8335;42.646;23.380;2022-08-30T00:01:26;16.55;;;9.88;;
8279;SDS011;8335;42.646;23.380;2022-08-30T00:03:53;13.68;;;10.45;;
8279;SDS011;8335;42.646;23.380;2022-08-30T00:06:22;12.75;;;9.50;;
8279;SDS011;8335;42.646;23.380;2022-08-30T00:08:50;11.45;;;9.82;;
8279;SDS011;8335;42.646;23.380;2022-08-30T00:11:18;12.55;;;10.65;;
8279;SDS011;8335;42.646;23.380;2022-08-30T00:13:48;14.13;;;10.50;;
8279;SDS011;8335;42.646;23.380;2022-08-30T00:16:17;12.93;;;10.95;;
8279;SDS011;8335;42.646;23.380;2022-08-30T00:18:45;14.25;;;10.18;;
8279;SDS011;8335;42.646;23.380;2022-08-30T00:21:13;11.88;;;9.10;;
8279;SDS011;8335;42.646;23.380;2022-08-30T00:23:40;12.07;;;8.77;;
8279;SDS011;8335;42.646;23.380;2022-08-30T00:26:07;11.48;;;8.65;;
8279;SDS011;8335;42.646;23.380;2022-08-30T00:28:34;12.02;;;9.18;;
8279;SDS011;8335;42.646;23.380;2022-08-30T00:31:02;9.55;;;8.50;;
8279;SDS011;8335;42.646;23.380;2022-08-30T00:33:31;10.90;;;8.40;;
8279;SDS011;8335;42.646;23.380;2022-08-30T00:36:00;9.57;;;8.63;;
8279;SDS011;8335;42.646;23.380;2022-08-30T00:38:26;11.73;;;8.82;;
8279;SDS011;8335;42.646;23.380;2022-08-30T00:40:53;11.57;;;8.27;;
8279;SDS011;8335;42.646;23.380;2022-08-30T00:43:22;11.50;;;8.95;;
8279;SDS011;8335;42.646;23.380;2022-08-30T00:45:50;12.35;;;8.55;;
8279;SDS011;8335;42.646;23.380;2022-08-30T00:48:19;11.27;;;8.90;;
8279;SDS011;8335;42.646;23.380;2022-08-30T00:50:46;10.90;;;8.45;;
8279;SDS011;8335;42.646;23.380;2022-08-30T00:53:17;14.05;;;9.32;;
8279;SDS011;8335;42.646;23.380;2022-08-30T00:55:46;15.75;;;10.07;;
8279;SDS011;8335;42.646;23.380;2022-08-30T00:58:15;15.07;;;10.55;;
8279;SDS011;8335;42.646;23.380;2022-08-30T01:00:46;11.73;;;10.50;;
8279;SDS011;8335;42.646;23.380;2022-08-30T01:03:15;13.45;;;11.43;;
8279;SDS011;8335;42.646;23.380;2022-08-30T01:05:43;16.83;;;10.63;;
8279;SDS011;8335;42.646;23.380;2022-08-30T01:08:11;13.75;;;11.55;;
8279;SDS011;8335;42.646;23.380;2022-08-30T01:10:39;13.63;;;10.30;;
8279;SDS011;8335;42.646;23.380;2022-08-30T01:13:08;14.43;;;11.70;;
8279;SDS011;8335;42.646;23.380;2022-08-30T01:15:37;12.40;;;10.45;;
8279;SDS011;8335;42.646;23.380;2022-08-30T01:18:04;13.88;;;11.98;;
8279;SDS011;8335;42.646;23.380;2022-08-30T01:20:32;19.73;;;12.75;;
8279;SDS011;8335;42.646;23.380;2022-08-30T01:23:07;16.85;;;12.85;;
8279;SDS011;8335;42.646;23.380;2022-08-30T01:25:37;13.98;;;12.45;;
8279;SDS011;8335;42.646;23.380;2022-08-30T01:28:07;16.65;;;13.15;;
8279;SDS011;8335;42.646;23.380;2022-08-30T01:30:37;16.40;;;12.68;;
8279;SDS011;8335;42.646;23.380;2022-08-30T01:33:04;20.58;;;13.18;;
8279;SDS011;8335;42.646;23.380;2022-08-30T01:35:32;21.83;;;15.18;;
8279;SDS011;8335;42.646;23.380;2022-08-30T01:38:02;22.95;;;15.15;;
8279;SDS011;8335;42.646;23.380;2022-08-30T01:40:31;17.05;;;14.20;;
8279;SDS011;8335;42.646;23.380;2022-08-30T01:42:58;20.42;;;14.40;;
8279;SDS011;8335;42.646;23.380;2022-08-30T01:45:25;22.13;;;14.88;;
8279;SDS011;8335;42.646;23.380;2022-08-30T01:47:51;18.67;;;15.10;;
8279;SDS011;8335;42.646;23.380;2022-08-30T01:50:18;17.20;;;14.77;;
8279;SDS011;8335;42.646;23.380;2022-08-30T01:52:45;24.13;;;14.70;;
8279;SDS011;8335;42.646;23.380;2022-08-30T01:55:12;21.75;;;13.45;;
8279;SDS011;8335;42.646;23.380;2022-08-30T01:57:40;17.98;;;14.13;;
8279;SDS011;8335;42.646;23.380;2022-08-30T02:00:08;17.98;;;13.55;;
8279;SDS011;8335;42.646;23.380;2022-08-30T02:02:36;16.63;;;14.07;;
8279;SDS011;8335;42.646;23.380;2022-08-30T02:05:03;18.40;;;14.10;;
8279;SDS011;8335;42.646;23.380;2022-08-30T02:07:30;22.67;;;14.20;;
8279;SDS011;8335;42.646;23.380;2022-08-30T02:09:59;23.65;;;15.07;;
8279;SDS011;8335;42.646;23.380;2022-08-30T02:12:26;16.98;;;13.55;;
8279;SDS011;8335;42.646;23.380;2022-08-30T02:14:55;15.88;;;13.65;;
8279;SDS011;8335;42.646;23.380;2022-08-30T02:17:22;16.60;;;13.88;;
8279;SDS011;8335;42.646;23.380;2022-08-30T02:19:49;18.83;;;14.30;;
8279;SDS011;8335;42.646;23.380;2022-08-30T02:22:16;17.35;;;11.27;;
8279;SDS011;8335;42.646;23.380;2022-08-30T02:24:44;16.15;;;10.55;;
8279;SDS011;8335;42.646;23.380;2022-08-30T02:27:11;13.80;;;10.43;;
8279;SDS011;8335;42.646;23.380;2022-08-30T02:29:38;14.82;;;10.13;;
8279;SDS011;8335;42.646;23.380;2022-08-30T02:32:06;13.65;;;9.90;;
8279;SDS011;8335;42.646;23.380;2022-08-30T02:34:33;14.80;;;9.68;;
8279;SDS011;8335;42.646;23.380;2022-08-30T02:37:00;12.77;;;10.55;;
8279;SDS011;8335;42.646;23.380;2022-08-30T02:39:27;12.25;;;10.05;;
8279;SDS011;8335;42.646;23.380;2022-08-30T02:41:54;20.90;;;9.85;;
8279;SDS011;8335;42.646;23.380;2022-08-30T02:44:20;12.75;;;9.88;;
8279;SDS011;8335;42.646;23.380;2022-08-30T02:46:47;14.30;;;10.32;;
8279;SDS011;8335;42.646;23.380;2022-08-30T02:49:15;11.30;;;9.82;;
8279;SDS011;8335;42.646;23.380;2022-08-30T02:51:42;13.88;;;10.55;;
8279;SDS011;8335;42.646;23.380;2022-08-30T02:54:09;13.98;;;10.48;;
8279;SDS011;8335;42.646;23.380;2022-08-30T02:56:39;11.98;;;10.18;;
8279;SDS011;8335;42.646;23.380;2022-08-30T02:59:06;13.95;;;10.55;;
8279;SDS011;8335;42.646;23.380;2022-08-30T03:01:33;13.82;;;10.82;;
8279;SDS011;8335;42.646;23.380;2022-08-30T03:04:03;12.57;;;10.25;;
8279;SDS011;8335;42.646;23.380;2022-08-30T03:06:31;14.25;;;10.93;;
8279;SDS011;8335;42.646;23.380;2022-08-30T03:08:58;12.07;;;10.73;;
8279;SDS011;8335;42.646;23.380;2022-08-30T03:11:25;12.68;;;10.57;;
8279;SDS011;8335;42.646;23.380;2022-08-30T03:13:51;12.30;;;10.85;;
8279;SDS011;8335;42.646;23.380;2022-08-30T03:16:18;16.42;;;10.95;;
8279;SDS011;8335;42.646;23.380;2022-08-30T03:18:46;12.73;;;10.63;;
8279;SDS011;8335;42.646;23.380;2022-08-30T03:21:14;13.52;;;10.40;;
8279;SDS011;8335;42.646;23.380;2022-08-30T03:23:43;13.00;;;10.80;;
8279;SDS011;8335;42.646;23.380;2022-08-30T03:26:10;15.90;;;10.93;;
8279;SDS011;8335;42.646;23.380;2022-08-30T03:28:38;12.20;;;10.38;;
8279;SDS011;8335;42.646;23.380;2022-08-30T03:31:06;15.35;;;11.20;;
8279;SDS011;8335;42.646;23.380;2022-08-30T03:33:33;14.75;;;10.57;;
8279;SDS011;8335;42.646;23.380;2022-08-30T03:36:01;14.23;;;10.45;;
8279;SDS011;8335;42.646;23.380;2022-08-30T03:38:28;13.00;;;11.15;;
8279;SDS011;8335;42.646;23.380;2022-08-30T03:40:56;18.20;;;11.05;;
8279;SDS011;8335;42.646;23.380;2022-08-30T03:43:23;13.18;;;10.70;;
8279;SDS011;8335;42.646;23.380;2022-08-30T03:45:50;17.42;;;11.50;;
8279;SDS011;8335;42.646;23.380;2022-08-30T03:48:16;15.05;;;11.25;;
8279;SDS011;8335;42.646;23.380;2022-08-30T03:50:43;14.13;;;10.32;;
8279;SDS011;8335;42.646;23.380;2022-08-30T03:53:10;14.57;;;11.50;;
8279;SDS011;8335;42.646;23.380;2022-08-30T03:55:37;14.50;;;10.95;;
8279;SDS011;8335;42.646;23.380;2022-08-30T03:58:05;17.05;;;11.60;;
8279;SDS011;8335;42.646;23.380;2022-08-30T04:00:31;16.65;;;11.52;;
8279;SDS011;8335;42.646;23.380;2022-08-30T04:02:58;16.02;;;12.90;;
8279;SDS011;8335;42.646;23.380;2022-08-30T04:05:25;15.13;;;11.70;;
8279;SDS011;8335;42.646;23.380;2022-08-30T04:07:52;13.95;;;11.85;;
8279;SDS011;8335;42.646;23.380;2022-08-30T04:10:19;21.48;;;12.50;;
8279;SDS011;8335;42.646;23.380;2022-08-30T04:12:47;18.08;;;12.93;;
8279;SDS011;8335;42.646;23.380;2022-08-30T04:15:16;18.25;;;13.15;;
8279;SDS011;8335;42.646;23.380;2022-08-30T04:17:44;20.10;;;13.02;;
8279;SDS011;8335;42.646;23.380;2022-08-30T04:20:12;17.77;;;13.48;;
8279;SDS011;8335;42.646;23.380;2022-08-30T04:22:38;16.00;;;13.10;;
8279;SDS011;8335;42.646;23.380;2022-08-30T04:25:07;16.20;;;13.65;;
8279;SDS011;8335;42.646;23.380;2022-08-30T04:27:34;20.10;;;13.55;;
8279;SDS011;8335;42.646;23.380;2022-08-30T04:30:01;20.90;;;13.13;;
8279;SDS011;8335;42.646;23.380;2022-08-30T04:32:30;16.15;;;12.98;;
8279;SDS011;8335;42.646;23.380;2022-08-30T04:34:59;20.25;;;13.95;;
8279;SDS011;8335;42.646;23.380;2022-08-30T04:37:26;19.27;;;13.18;;
8279;SDS011;8335;42.646;23.380;2022-08-30T04:39:54;19.55;;;13.50;;
8279;SDS011;8335;42.646;23.380;2022-08-30T04:42:21;20.92;;;13.48;;
8279;SDS011;8335;42.646;23.380;2022-08-30T04:44:48;23.23;;;13.75;;
8279;SDS011;8335;42.646;23.380;2022-08-30T04:47:16;17.38;;;13.85;;
8279;SDS011;8335;42.646;23.380;2022-08-30T04:49:44;17.83;;;13.38;;
8279;SDS011;8335;42.646;23.380;2022-08-30T04:52:11;22.00;;;12.80;;
8279;SDS011;8335;42.646;23.380;2022-08-30T04:54:38;18.58;;;12.45;;
8279;SDS011;8335;42.646;23.380;2022-08-30T04:57:05;17.85;;;12.88;;
8279;SDS011;8335;42.646;23.380;2022-08-30T04:59:32;21.05;;;12.55;;
8279;SDS011;8335;42.646;23.380;2022-08-30T05:01:59;18.13;;;11.27;;
8279;SDS011;8335;42.646;23.380;2022-08-30T05:04:26;19.30;;;12.25;;
8279;SDS011;8335;42.646;23.380;2022-08-30T05:06:54;16.23;;;12.60;;
8279;SDS011;8335;42.646;23.380;2022-08-30T05:09:21;18.45;;;11.70;;
8279;SDS011;8335;42.646;23.380;2022-08-30T05:11:48;16.48;;;12.15;;
8279;SDS011;8335;42.646;23.380;2022-08-30T05:14:14;14.05;;;11.00;;
8279;SDS011;8335;42.646;23.380;2022-08-30T05:16:41;15.35;;;11.25;;
8279;SDS011;8335;42.646;23.380;2022-08-30T05:19:08;15.75;;;12.10;;
8279;SDS011;8335;42.646;23.380;2022-08-30T05:21:35;18.75;;;12.13;;
8279;SDS011;8335;42.646;23.380;2022-08-30T05:24:06;15.73;;;12.55;;
8279;SDS011;8335;42.646;23.380;2022-08-30T05:26:33;14.60;;;11.20;;
8279;SDS011;8335;42.646;23.380;2022-08-30T05:29:02;15.07;;;11.77;;
8279;SDS011;8335;42.646;23.380;2022-08-30T05:31:30;17.13;;;12.07;;
8279;SDS011;8335;42.646;23.380;2022-08-30T05:33:58;14.60;;;13.02;;
8279;SDS011;8335;42.646;23.380;2022-08-30T05:36:26;16.10;;;11.82;;
8279;SDS011;8335;42.646;23.380;2022-08-30T05:38:55;17.27;;;11.73;;
8279;SDS011;8335;42.646;23.380;2022-08-30T05:41:24;16.08;;;11.82;;
8279;SDS011;8335;42.646;23.380;2022-08-30T05:43:51;22.08;;;12.27;;
8279;SDS011;8335;42.646;23.380;2022-08-30T05:46:18;18.48;;;11.93;;
8279;SDS011;8335;42.646;23.380;2022-08-30T05:48:46;17.35;;;12.23;;
8279;SDS011;8335;42.646;23.380;2022-08-30T05:51:14;15.35;;;11.73;;
8279;SDS011;8335;42.646;23.380;2022-08-30T05:53:43;18.27;;;11.82;;
8279;SDS011;8335;42.646;23.380;2022-08-30T05:56:11;22.10;;;12.27;;
8279;SDS011;8335;42.646;23.380;2022-08-30T05:58:41;14.90;;;11.73;;
8279;SDS011;8335;42.646;23.380;2022-08-30T06:01:17;18.45;;;13.93;;
8279;SDS011;8335;42.646;23.380;2022-08-30T06:03:45;18.02;;;13.35;;
8279;SDS011;8335;42.646;23.380;2022-08-30T06:06:12;23.50;;;14.75;;
8279;SDS011;8335;42.646;23.380;2022-08-30T06:08:39;22.90;;;14.43;;
8279;SDS011;8335;42.646;23.380;2022-08-30T06:11:09;20.98;;;14.18;;
8279;SDS011;8335;42.646;23.380;2022-08-30T06:13:36;18.88;;;13.50;;
8279;SDS011;8335;42.646;23.380;2022-08-30T06:16:05;16.08;;;14.13;;
8279;SDS011;8335;42.646;23.380;2022-08-30T06:18:32;19.23;;;13.90;;
8279;SDS011;8335;42.646;23.380;2022-08-30T06:20:59;20.35;;;14.20;;
8279;SDS011;8335;42.646;23.380;2022-08-30T06:23:28;25.75;;;14.35;;
8279;SDS011;8335;42.646;23.380;2022-08-30T06:25:55;19.33;;;14.52;;
8279;SDS011;8335;42.646;23.380;2022-08-30T06:28:22;28.30;;;14.90;;
8279;SDS011;8335;42.646;23.380;2022-08-30T06:30:49;19.63;;;14.25;;
8279;SDS011;8335;42.646;23.380;2022-08-30T06:33:17;20.08;;;14.95;;
8279;SDS011;8335;42.646;23.380;2022-08-30T06:35:44;20.77;;;14.57;;
8279;SDS011;8335;42.646;23.380;2022-08-30T06:38:11;24.60;;;16.08;;
8279;SDS011;8335;42.646;23.380;2022-08-30T06:40:37;26.05;;;15.23;;
8279;SDS011;8335;42.646;23.380;2022-08-30T06:43:04;22.05;;;15.27;;
8279;SDS011;8335;42.646;23.380;2022-08-30T06:45:31;20.80;;;15.07;;
8279;SDS011;8335;42.646;23.380;2022-08-30T06:47:59;20.10;;;15.20;;
8279;SDS011;8335;42.646;23.380;2022-08-30T06:50:27;20.45;;;15.30;;
8279;SDS011;8335;42.646;23.380;2022-08-30T06:52:56;20.73;;;14.65;;
8279;SDS011;8335;42.646;23.380;2022-08-30T06:55:28;21.08;;;16.15;;
8279;SDS011;8335;42.646;23.380;2022-08-30T06:57:57;21.67;;;14.82;;
8279;SDS011;8335;42.646;23.380;2022-08-30T07:00:24;20.88;;;14.68;;
8279;SDS011;8335;42.646;23.380;2022-08-30T07:02:51;24.65;;;16.85;;
8279;SDS011;8335;42.646;23.380;2022-08-30T07:05:18;21.42;;;16.02;;
8279;SDS011;8335;42.646;23.380;2022-08-30T07:07:48;19.58;;;15.50;;
8279;SDS011;8335;42.646;23.380;2022-08-30T07:10:17;19.70;;;15.82;;
8279;SDS011;8335;42.646;23.380;2022-08-30T07:12:45;20.63;;;15.98;;
8279;SDS011;8335;42.646;23.380;2022-08-30T07:15:12;20.15;;;16.13;;
8279;SDS011;8335;42.646;23.380;2022-08-30T07:17:39;22.88;;;17.98;;
8279;SDS011;8335;42.646;23.380;2022-08-30T07:20:24;23.67;;;15.93;;
8279;SDS011;8335;42.646;23.380;2022-08-30T07:22:52;25.08;;;16.40;;
8279;SDS011;8335;42.646;23.380;2022-08-30T07:25:19;22.30;;;16.65;;
8279;SDS011;8335;42.646;23.380;2022-08-30T07:27:45;24.92;;;16.05;;
8279;SDS011;8335;42.646;23.380;2022-08-30T07:30:14;26.40;;;17.05;;
8279;SDS011;8335;42.646;23.380;2022-08-30T07:32:41;26.23;;;16.85;;
8279;SDS011;8335;42.646;23.380;2022-08-30T07:35:07;22.23;;;15.93;;
8279;SDS011;8335;42.646;23.380;2022-08-30T07:37:34;19.35;;;15.68;;
8279;SDS011;8335;42.646;23.380;2022-08-30T07:40:03;21.17;;;15.48;;
8279;SDS011;8335;42.646;23.380;2022-08-30T07:42:31;20.15;;;14.23;;
8279;SDS011;8335;42.646;23.380;2022-08-30T07:44:58;21.27;;;16.30;;
8279;SDS011;8335;42.646;23.380;2022-08-30T07:47:27;22.67;;;15.40;;
8279;SDS011;8335;42.646;23.380;2022-08-30T07:49:53;22.05;;;16.25;;
8279;SDS011;8335;42.646;23.380;2022-08-30T07:52:20;21.98;;;15.82;;
8279;SDS011;8335;42.646;23.380;2022-08-30T07:54:47;29.40;;;16.80;;
8279;SDS011;8335;42.646;23.380;2022-08-30T07:57:15;20.88;;;15.70;;
8279;SDS011;8335;42.646;23.380;2022-08-30T07:59:42;27.25;;;16.75;;
8279;SDS011;8335;42.646;23.380;2022-08-30T08:02:08;22.27;;;16.70;;
8279;SDS011;8335;42.646;23.380;2022-08-30T08:04:35;24.67;;;16.25;;
8279;SDS011;8335;42.646;23.380;2022-08-30T08:07:02;22.15;;;17.90;;
8279;SDS011;8335;42.646;23.380;2022-08-30T08:09:29;24.02;;;17.05;;
8279;SDS011;8335;42.646;23.380;2022-08-30T08:11:56;20.63;;;16.73;;
8279;SDS011;8335;42.646;23.380;2022-08-30T08:14:24;25.98;;;17.52;;
8279;SDS011;8335;42.646;23.380;2022-08-30T08:16:52;26.92;;;17.75;;
8279;SDS011;8335;42.646;23.380;2022-08-30T08:19:19;25.73;;;18.20;;
8279;SDS011;8335;42.646;23.380;2022-08-30T08:21:45;27.02;;;19.13;;
8279;SDS011;8335;42.646;23.380;2022-08-30T08:24:12;24.40;;;19.13;;
8279;SDS011;8335;42.646;23.380;2022-08-30T08:26:39;25.02;;;19.10;;
8279;SDS011;8335;42.646;23.380;2022-08-30T08:29:07;23.75;;;17.55;;
8279;SDS011;8335;42.646;23.380;2022-08-30T08:31:36;27.08;;;18.35;;
8279;SDS011;8335;42.646;23.380;2022-08-30T08:34:03;27.10;;;17.88;;
8279;SDS011;8335;42.646;23.380;2022-08-30T08:36:31;22.92;;;17.48;;
8279;SDS011;8335;42.646;23.380;2022-08-30T08:38:58;23.40;;;17.63;;
8279;SDS011;8335;42.646;23.380;2022-08-30T08:41:32;23.80;;;17.77;;
8279;SDS011;8335;42.646;23.380;2022-08-30T08:44:06;28.70;;;18.45;;
8279;SDS011;8335;42.646;23.380;2022-08-30T08:46:43;24.70;;;16.75;;
8279;SDS011;8335;42.646;23.380;2022-08-30T08:49:20;24.20;;;18.08;;
8279;SDS011;8335;42.646;23.380;2022-08-30T08:51:46;23.58;;;17.30;;
8279;SDS011;8335;42.646;23.380;2022-08-30T08:54:31;23.08;;;16.50;;
8279;SDS011;8335;42.646;23.380;2022-08-30T08:57:04;20.48;;;15.70;;
8279;SDS011;8335;42.646;23.380;2022-08-30T08:59:31;26.98;;;15.52;;
8279;SDS011;8335;42.646;23.380;2022-08-30T09:01:59;19.35;;;14.30;;
8279;SDS011;8335;42.646;23.380;2022-08-30T09:04:35;20.35;;;14.73;;
8279;SDS011;8335;42.646;23.380;2022-08-30T09:07:05;14.48;;;12.98;;
8279;SDS011;8335;42.646;23.380;2022-08-30T09:09:39;14.63;;;12.57;;
8279;SDS011;8335;42.646;23.380;2022-08-30T09:12:09;17.23;;;13.68;;
8279;SDS011;8335;42.646;23.380;2022-08-30T09:14:38;17.90;;;13.43;;
8279;SDS011;8335;42.646;23.380;2022-08-30T09:17:10;22.67;;;13.10;;
8279;SDS011;8335;42.646;23.380;2022-08-30T09:19:41;23.05;;;17.38;;
8279;SDS011;8335;42.646;23.380;2022-08-30T09:22:14;23.27;;;17.17;;
8279;SDS011;8335;42.646;23.380;2022-08-30T09:24:51;14.38;;;11.15;;
8279;SDS011;8335;42.646;23.380;2022-08-30T09:27:22;13.27;;;10.43;;
8279;SDS011;8335;42.646;23.380;2022-08-30T09:29:52;14.10;;;10.30;;
8279;SDS011;8335;42.646;23.380;2022-08-30T09:32:24;12.52;;;9.63;;
8279;SDS011;8335;42.646;23.380;2022-08-30T09:34:52;14.90;;;11.45;;
8279;SDS011;8335;42.646;23.380;2022-08-30T09:37:23;15.20;;;10.93;;
8279;SDS011;8335;42.646;23.380;2022-08-30T09:39:52;13.23;;;9.00;;
8279;SDS011;8335;42.646;23.380;2022-08-30T09:42:20;17.77;;;9.02;;
8279;SDS011;8335;42.646;23.380;2022-08-30T09:44:49;13.73;;;8.80;;
8279;SDS011;8335;42.646;23.380;2022-08-30T09:47:18;11.15;;;8.40;;
8279;SDS011;8335;42.646;23.380;2022-08-30T09:49:48;10.13;;;7.85;;
8279;SDS011;8335;42.646;23.380;2022-08-30T09:52:16;13.43;;;9.07;;
8279;SDS011;8335;42.646;23.380;2022-08-30T09:55:02;14.70;;;11.77;;
8279;SDS011;8335;42.646;23.380;2022-08-30T09:57:42;11.40;;;7.00;;
8279;SDS011;8335;42.646;23.380;2022-08-30T10:00:17;12.77;;;7.28;;
8279;SDS011;8335;42.646;23.380;2022-08-30T10:02:47;9.00;;;7.10;;
8279;SDS011;8335;42.646;23.380;2022-08-30T10:05:28;12.77;;;7.00;;
8279;SDS011;8335;42.646;23.380;2022-08-30T10:08:02;15.63;;;10.68;;
8279;SDS011;8335;42.646;23.380;2022-08-30T10:10:39;18.75;;;10.77;;
8279;SDS011;8335;42.646;23.380;2022-08-30T10:13:25;18.63;;;11.85;;
8279;SDS011;8335;42.646;23.380;2022-08-30T10:16:02;23.17;;;11.75;;
8279;SDS011;8335;42.646;23.380;2022-08-30T10:18:39;24.00;;;12.32;;
8279;SDS011;8335;42.646;23.380;2022-08-30T10:21:17;17.02;;;11.13;;
8279;SDS011;8335;42.646;23.380;2022-08-30T10:23:52;20.02;;;12.40;;
8279;SDS011;8335;42.646;23.380;2022-08-30T10:26:25;18.50;;;11.70;;
8279;SDS011;8335;42.646;23.380;2022-08-30T10:28:57;19.70;;;11.43;;
8279;SDS011;8335;42.646;23.380;2022-08-30T10:31:30;14.57;;;11.45;;
8279;SDS011;8335;42.646;23.380;2022-08-30T10:34:03;21.25;;;11.63;;
8279;SDS011;8335;42.646;23.380;2022-08-30T10:36:39;17.00;;;10.73;;
8279;SDS011;8335;42.646;23.380;2022-08-30T10:39:09;19.95;;;13.27;;
8279;SDS011;8335;42.646;23.380;2022-08-30T10:41:43;28.88;;;13.70;;
8279;SDS011;8335;42.646;23.380;2022-08-30T10:44:22;17.55;;;12.25;;
8279;SDS011;8335;42.646;23.380;2022-08-30T10:46:58;15.48;;;11.23;;
8279;SDS011;8335;42.646;23.380;2022-08-30T10:49:36;22.92;;;11.75;;
8279;SDS011;8335;42.646;23.380;2022-08-30T10:52:11;17.48;;;11.43;;
8279;SDS011;8335;42.646;23.380;2022-08-30T10:54:46;18.80;;;12.07;;
8279;SDS011;8335;42.646;23.380;2022-08-30T10:57:15;17.20;;;12.13;;
8279;SDS011;8335;42.646;23.380;2022-08-30T10:59:43;23.88;;;11.65;;
8279;SDS011;8335;42.646;23.380;2022-08-30T11:05:26;23.65;;;12.68;;
8279;SDS011;8335;42.646;23.380;2022-08-30T11:08:27;21.42;;;12.40;;
8279;SDS011;8335;42.646;23.380;2022-08-30T11:11:10;17.70;;;10.20;;
8279;SDS011;8335;42.646;23.380;2022-08-30T11:13:44;15.40;;;10.57;;
8279;SDS011;8335;42.646;23.380;2022-08-30T11:16:13;17.67;;;9.93;;
8279;SDS011;8335;42.646;23.380;2022-08-30T11:18:44;11.73;;;9.05;;
8279;SDS011;8335;42.646;23.380;2022-08-30T11:21:16;13.30;;;9.38;;
8279;SDS011;8335;42.646;23.380;2022-08-30T11:23:58;13.20;;;8.95;;
8279;SDS011;8335;42.646;23.380;2022-08-30T11:29:32;12.13;;;8.95;;
8279;SDS011;8335;42.646;23.380;2022-08-30T11:35:06;14.68;;;9.70;;
8279;SDS011;8335;42.646;23.380;2022-08-30T11:37:37;13.52;;;9.82;;
8279;SDS011;8335;42.646;23.380;2022-08-30T11:40:11;14.43;;;9.48;;
8279;SDS011;8335;42.646;23.380;2022-08-30T11:46:16;18.77;;;10.20;;
8279;SDS011;8335;42.646;23.380;2022-08-30T11:48:49;19.17;;;10.05;;
8279;SDS011;8335;42.646;23.380;2022-08-30T11:54:27;19.27;;;10.05;;
8279;SDS011;8335;42.646;23.380;2022-08-30T11:57:05;13.48;;;10.52;;
8279;SDS011;8335;42.646;23.380;2022-08-30T11:59:43;16.40;;;10.55;;
8279;SDS011;8335;42.646;23.380;2022-08-30T12:02:41;16.55;;;10.05;;
8279;SDS011;8335;42.646;23.380;2022-08-30T12:14:36;18.58;;;10.90;;
8279;SDS011;8335;42.646;23.380;2022-08-30T12:17:09;13.20;;;10.60;;
8279;SDS011;8335;42.646;23.380;2022-08-30T12:19:57;15.85;;;10.52;;
8279;SDS011;8335;42.646;23.380;2022-08-30T12:22:24;14.90;;;9.82;;
8279;SDS011;8335;42.646;23.380;2022-08-30T12:24:54;20.80;;;10.45;;
8279;SDS011;8335;42.646;23.380;2022-08-30T12:27:23;18.13;;;11.82;;
8279;SDS011;8335;42.646;23.380;2022-08-30T12:29:56;13.65;;;11.63;;
8279;SDS011;8335;42.646;23.380;2022-08-30T12:32:25;23.95;;;12.00;;
8279;SDS011;8335;42.646;23.380;2022-08-30T12:34:53;14.40;;;10.85;;
8279;SDS011;8335;42.646;23.380;2022-08-30T12:37:23;18.02;;;11.73;;
8279;SDS011;8335;42.646;23.380;2022-08-30T12:40:00;15.65;;;11.68;;
8279;SDS011;8335;42.646;23.380;2022-08-30T12:42:31;14.82;;;10.43;;
8279;SDS011;8335;42.646;23.380;2022-08-30T12:45:03;17.08;;;11.38;;
8279;SDS011;8335;42.646;23.380;2022-08-30T12:47:42;19.08;;;12.98;;
8279;SDS011;8335;42.646;23.380;2022-08-30T12:50:12;15.95;;;10.57;;
8279;SDS011;8335;42.646;23.380;2022-08-30T12:52:44;17.67;;;11.20;;
8279;SDS011;8335;42.646;23.380;2022-08-30T12:55:15;13.32;;;10.52;;
8279;SDS011;8335;42.646;23.380;2022-08-30T12:57:54;14.38;;;10.90;;
8279;SDS011;8335;42.646;23.380;2022-08-30T13:00:25;19.17;;;12.05;;
8279;SDS011;8335;42.646;23.380;2022-08-30T13:02:54;13.48;;;10.48;;
8279;SDS011;8335;42.646;23.380;2022-08-30T13:05:31;17.27;;;11.10;;
8279;SDS011;8335;42.646;23.380;2022-08-30T13:08:09;18.85;;;12.48;;
8279;SDS011;8335;42.646;23.380;2022-08-30T13:13:33;17.13;;;11.63;;
8279;SDS011;8335;42.646;23.380;2022-08-30T13:16:09;16.05;;;11.27;;
8279;SDS011;8335;42.646;23.380;2022-08-30T13:18:38;21.20;;;12.85;;
8279;SDS011;8335;42.646;23.380;2022-08-30T13:21:08;15.88;;;12.23;;
8279;SDS011;8335;42.646;23.380;2022-08-30T13:23:37;16.85;;;12.07;;
8279;SDS011;8335;42.646;23.380;2022-08-30T13:26:05;15.75;;;11.50;;
8279;SDS011;8335;42.646;23.380;2022-08-30T13:28:41;14.23;;;10.95;;
8279;SDS011;8335;42.646;23.380;2022-08-30T13:31:10;18.92;;;11.98;;
8279;SDS011;8335;42.646;23.380;2022-08-30T13:33:37;16.77;;;11.48;;
8279;SDS011;8335;42.646;23.380;2022-08-30T13:36:03;17.52;;;11.73;;
8279;SDS011;8335;42.646;23.380;2022-08-30T13:38:30;17.63;;;11.35;;
8279;SDS011;8335;42.646;23.380;2022-08-30T13:40:59;19.33;;;12.02;;
8279;SDS011;8335;42.646;23.380;2022-08-30T13:43:26;18.02;;;12.27;;
8279;SDS011;8335;42.646;23.380;2022-08-30T13:45:53;14.95;;;11.65;;
8279;SDS011;8335;42.646;23.380;2022-08-30T13:48:22;17.70;;;11.93;;
8279;SDS011;8335;42.646;23.380;2022-08-30T13:50:50;18.15;;;12.07;;
8279;SDS011;8335;42.646;23.380;2022-08-30T13:53:19;21.75;;;12.38;;
8279;SDS011;8335;42.646;23.380;2022-08-30T13:55:46;20.65;;;11.68;;
8279;SDS011;8335;42.646;23.380;2022-08-30T13:58:13;21.35;;;12.18;;
8279;SDS011;8335;42.646;23.380;2022-08-30T14:00:40;18.45;;;12.18;;
8279;SDS011;8335;42.646;23.380;2022-08-30T14:03:07;17.70;;;11.00;;
8279;SDS011;8335;42.646;23.380;2022-08-30T14:05:36;20.55;;;11.32;;
8279;SDS011;8335;42.646;23.380;2022-08-30T14:08:04;16.83;;;11.57;;
8279;SDS011;8335;42.646;23.380;2022-08-30T14:10:33;21.42;;;10.77;;
8279;SDS011;8335;42.646;23.380;2022-08-30T14:13:00;18.60;;;11.60;;
8279;SDS011;8335;42.646;23.380;2022-08-30T14:15:28;15.68;;;11.63;;
8279;SDS011;8335;42.646;23.380;2022-08-30T14:17:54;18.27;;;11.68;;
8279;SDS011;8335;42.646;23.380;2022-08-30T14:20:21;19.20;;;10.90;;
8279;SDS011;8335;42.646;23.380;2022-08-30T14:22:49;20.08;;;12.25;;
8279;SDS011;8335;42.646;23.380;2022-08-30T14:25:16;18.20;;;11.50;;
8279;SDS011;8335;42.646;23.380;2022-08-30T14:27:43;14.90;;;12.07;;
8279;SDS011;8335;42.646;23.380;2022-08-30T14:30:10;18.23;;;11.57;;
8279;SDS011;8335;42.646;23.380;2022-08-30T14:32:37;23.95;;;12.20;;
8279;SDS011;8335;42.646;23.380;2022-08-30T14:35:04;15.55;;;11.73;;
8279;SDS011;8335;42.646;23.380;2022-08-30T14:37:32;16.45;;;11.75;;
8279;SDS011;8335;42.646;23.380;2022-08-30T14:40:00;16.63;;;11.38;;
8279;SDS011;8335;42.646;23.380;2022-08-30T14:42:27;16.98;;;12.40;;
8279;SDS011;8335;42.646;23.380;2022-08-30T14:44:53;16.13;;;12.68;;
8279;SDS011;8335;42.646;23.380;2022-08-30T14:47:20;17.02;;;12.25;;
8279;SDS011;8335;42.646;23.380;2022-08-30T14:49:47;18.35;;;12.25;;
8279;SDS011;8335;42.646;23.380;2022-08-30T14:52:14;15.13;;;11.38;;
8279;SDS011;8335;42.646;23.380;2022-08-30T14:54:41;21.13;;;13.25;;
8279;SDS011;8335;42.646;23.380;2022-08-30T14:57:09;19.35;;;12.35;;
8279;SDS011;8335;42.646;23.380;2022-08-30T14:59:35;17.55;;;13.52;;
8279;SDS011;8335;42.646;23.380;2022-08-30T15:02:02;27.73;;;13.35;;
8279;SDS011;8335;42.646;23.380;2022-08-30T15:04:29;18.60;;;12.68;;
8279;SDS011;8335;42.646;23.380;2022-08-30T15:06:56;17.48;;;12.65;;
8279;SDS011;8335;42.646;23.380;2022-08-30T15:09:23;17.80;;;13.20;;
8279;SDS011;8335;42.646;23.380;2022-08-30T15:11:51;19.63;;;12.73;;
8279;SDS011;8335;42.646;23.380;2022-08-30T15:14:19;16.70;;;13.20;;
8279;SDS011;8335;42.646;23.380;2022-08-30T15:16:46;21.33;;;12.73;;